Time;durP1;ratioP1;P1;durP2;ratioP2;P2;SDS_P1;SDS_P2;PMS_P1;PMS_P2;Temp;Humidity;BMP_temperature;BMP_pressure;BME280_temperature;BME280_humidity;BME280_pressure;Samples;Min_cycle;Max_cycle;Signal;HPM_P1;HPM_P2
2024/04/03 00:00:43;;;;;;;8.60;2.73;;;10.00;99.90;;;;;;5051933;28;20017;-52
2024/04/03 00:03:09;;;;;;;6.37;2.47;;;10.00;99.90;;;;;;5051924;28;20617;-51
2024/04/03 00:05:34;;;;;;;6.93;2.83;;;10.10;99.90;;;;;;5051778;28;20025;-53
2024/04/03 00:08:00;;;;;;;6.93;2.53;;;10.10;99.90;;;;;;5051803;28;20073;-54
2024/04/03 00:10:25;;;;;;;8.60;2.30;;;10.10;99.90;;;;;;5051800;28;20059;-53
2024/04/03 00:12:51;;;;;;;11.73;3.20;;;10.00;99.90;;;;;;5051841;28;20068;-53
2024/04/03 00:15:17;;;;;;;10.80;3.33;;;10.00;99.90;;;;;;5051789;28;20059;-53
2024/04/03 00:17:42;;;;;;;6.63;2.97;;;10.00;99.90;;;;;;5051338;28;20076;-52
2024/04/03 00:20:09;;;;;;;5.27;2.20;;;10.00;99.90;;;;;;5051662;28;20104;-54
2024/04/03 00:22:35;;;;;;;10.23;2.93;;;10.00;99.90;;;;;;5051777;28;20037;-52
2024/04/03 00:25:00;;;;;;;7.87;2.13;;;10.00;99.90;;;;;;5051755;28;20033;-50
2024/04/03 00:27:26;;;;;;;6.60;2.30;;;10.10;99.90;;;;;;5051524;28;20025;-48
2024/04/03 00:29:51;;;;;;;6.30;2.40;;;10.00;99.90;;;;;;5051490;28;20501;-46
2024/04/03 00:32:17;;;;;;;11.33;3.17;;;10.00;99.90;;;;;;5051648;28;20413;-52
2024/04/03 00:34:43;;;;;;;6.60;2.90;;;10.10;99.90;;;;;;5054632;28;20068;-51
2024/04/03 00:37:08;;;;;;;7.17;2.97;;;10.10;99.90;;;;;;5055460;28;20040;-52
2024/04/03 00:39:34;;;;;;;6.93;3.30;;;10.20;99.90;;;;;;5055624;28;20496;-50
2024/04/03 00:42:01;;;;;;;10.00;3.03;;;10.20;99.90;;;;;;5055692;28;20397;-53
2024/04/03 00:44:27;;;;;;;8.10;3.07;;;10.30;99.90;;;;;;5055840;28;20386;-53
2024/04/03 00:46:53;;;;;;;8.73;3.30;;;10.40;99.90;;;;;;5053979;28;20033;-50
2024/04/03 00:49:20;;;;;;;6.87;3.20;;;10.30;99.90;;;;;;5054242;28;20119;-53
2024/04/03 00:51:49;;;;;;;9.00;3.37;;;10.30;99.90;;;;;;5055329;28;20025;-53
2024/04/03 00:54:16;;;;;;;7.97;2.95;;;10.20;99.90;;;;;;5055484;28;20115;-49
2024/04/03 00:56:42;;;;;;;7.17;2.07;;;10.20;99.90;;;;;;5055140;28;20029;-53
2024/04/03 00:59:08;;;;;;;4.53;2.00;;;10.20;99.90;;;;;;5055126;28;20040;-52
2024/04/03 01:01:33;;;;;;;7.13;2.00;;;10.20;99.90;;;;;;5055236;28;20028;-48
2024/04/03 01:03:59;;;;;;;7.40;2.27;;;10.20;99.90;;;;;;5055237;28;20118;-51
2024/04/03 01:06:24;;;;;;;6.83;1.70;;;10.10;99.90;;;;;;5055013;28;20035;-53
2024/04/03 01:08:50;;;;;;;5.20;1.90;;;10.10;99.90;;;;;;5055170;28;20428;-50
2024/04/03 01:11:17;;;;;;;8.17;1.90;;;10.20;99.90;;;;;;5055073;28;20108;-52
2024/04/03 01:13:43;;;;;;;3.93;1.80;;;10.10;99.90;;;;;;5055089;28;20028;-47
2024/04/03 01:16:09;;;;;;;7.93;1.50;;;10.10;99.90;;;;;;5054945;28;20036;-52
2024/04/03 01:18:35;;;;;;;5.70;1.67;;;10.20;99.90;;;;;;5054965;28;20033;-49
2024/04/03 01:21:01;;;;;;;7.47;1.70;;;10.20;99.90;;;;;;5054791;28;20241;-52
2024/04/03 01:23:27;;;;;;;6.53;1.70;;;10.20;99.90;;;;;;5054879;28;20036;-49
2024/04/03 01:25:52;;;;;;;5.07;1.47;;;10.20;99.90;;;;;;5054581;28;20037;-52
2024/04/03 01:28:23;;;;;;;5.87;1.80;;;10.20;99.90;;;;;;5054748;28;20029;-51
2024/04/03 01:30:49;;;;;;;6.03;1.70;;;10.20;99.90;;;;;;5054721;28;20086;-48
2024/04/03 01:33:15;;;;;;;4.13;1.80;;;10.30;99.90;;;;;;5054738;28;20120;-51
2024/04/03 01:35:40;;;;;;;3.93;1.33;;;10.20;99.90;;;;;;5054518;28;20119;-49
2024/04/03 01:38:06;;;;;;;2.97;1.70;;;10.20;99.90;;;;;;5054511;28;20051;-50
2024/04/03 01:40:32;;;;;;;9.23;1.57;;;10.20;99.90;;;;;;5054478;28;20444;-50
2024/04/03 01:42:58;;;;;;;5.23;1.97;;;10.10;99.90;;;;;;5054444;28;20108;-52
2024/04/03 01:45:24;;;;;;;6.73;1.60;;;10.20;99.90;;;;;;5053645;28;20082;-52
2024/04/03 01:47:49;;;;;;;5.53;1.67;;;10.20;99.90;;;;;;5054447;28;20033;-52
2024/04/03 01:50:35;;;;;;;5.70;1.80;;;10.20;99.90;;;;;;5053222;28;20037;-52
2024/04/03 01:53:01;;;;;;;5.83;1.63;;;10.10;99.90;;;;;;5054356;28;20097;-50
2024/04/03 01:55:26;;;;;;;7.60;3.03;;;10.00;99.90;;;;;;5054095;28;20037;-48
2024/04/03 01:57:52;;;;;;;6.63;1.87;;;10.00;99.90;;;;;;5054122;28;20037;-48
2024/04/03 02:00:17;;;;;;;8.83;2.63;;;10.00;99.90;;;;;;5054136;28;20390;-50
2024/04/03 02:02:43;;;;;;;5.30;1.50;;;9.90;99.90;;;;;;5054191;28;20035;-52
2024/04/03 02:05:08;;;;;;;6.70;1.60;;;10.00;99.90;;;;;;5054108;28;20021;-48
2024/04/03 02:07:34;;;;;;;8.60;1.63;;;10.00;99.90;;;;;;5053878;28;20545;-48
2024/04/03 02:10:00;;;;;;;6.50;1.70;;;10.00;99.90;;;;;;5053906;28;20029;-48
2024/04/03 02:12:25;;;;;;;7.77;1.53;;;10.00;99.90;;;;;;5054008;28;20124;-47
2024/04/03 02:14:51;;;;;;;4.63;1.60;;;10.00;99.90;;;;;;5053991;28;20037;-47
2024/04/03 02:17:16;;;;;;;6.77;1.50;;;10.00;99.90;;;;;;5053841;28;20482;-48
2024/04/03 02:19:42;;;;;;;7.23;1.60;;;10.10;99.90;;;;;;5054064;28;20017;-48
2024/04/03 02:22:07;;;;;;;5.97;1.60;;;10.00;99.90;;;;;;5053848;28;20116;-52
2024/04/03 02:24:33;;;;;;;7.43;1.37;;;10.00;99.90;;;;;;5053691;28;20021;-53
2024/04/03 02:26:58;;;;;;;7.00;1.63;;;10.00;99.90;;;;;;5053511;28;20036;-52
2024/04/03 02:29:24;;;;;;;5.23;1.50;;;10.00;99.90;;;;;;5052466;28;20437;-52
2024/04/03 02:31:50;;;;;;;4.10;1.23;;;10.00;99.90;;;;;;5053582;28;20033;-53
2024/04/03 02:34:16;;;;;;;5.87;1.90;;;9.90;99.90;;;;;;5053574;28;20155;-53
2024/04/03 02:36:42;;;;;;;7.00;1.60;;;10.00;99.90;;;;;;5053291;28;20078;-53
2024/04/03 02:39:08;;;;;;;6.17;1.20;;;9.90;99.90;;;;;;5053266;28;20114;-53
2024/04/03 02:41:33;;;;;;;8.57;1.83;;;9.90;99.90;;;;;;5053424;28;20032;-52
2024/04/03 02:43:59;;;;;;;8.03;1.73;;;9.90;99.90;;;;;;5053417;28;20076;-53
2024/04/03 02:46:25;;;;;;;6.20;2.00;;;9.90;99.90;;;;;;5053162;28;20039;-53
2024/04/03 02:48:50;;;;;;;7.73;1.83;;;9.90;99.90;;;;;;5053268;28;20029;-51
2024/04/03 02:51:16;;;;;;;8.47;1.70;;;9.90;99.90;;;;;;5053007;28;20040;-50
2024/04/03 02:53:41;;;;;;;5.97;1.20;;;9.90;99.90;;;;;;5053041;28;20159;-54
2024/04/03 02:56:08;;;;;;;7.93;2.13;;;9.90;99.90;;;;;;5052819;28;20032;-54
2024/04/03 02:58:34;;;;;;;6.07;1.50;;;10.00;99.90;;;;;;5052152;28;20397;-52
2024/04/03 03:01:01;;;;;;;6.70;1.73;;;10.00;99.90;;;;;;5053020;28;20033;-54
2024/04/03 03:03:29;;;;;;;7.27;1.97;;;10.00;99.90;;;;;;5053044;28;20029;-54
2024/04/03 03:05:58;;;;;;;4.75;1.60;;;9.90;99.90;;;;;;5052818;28;20095;-53
2024/04/03 03:08:28;;;;;;;5.72;1.85;;;9.90;99.90;;;;;;5051621;28;20422;-54
2024/04/03 03:10:54;;;;;;;4.43;1.60;;;9.90;99.90;;;;;;5052832;28;20033;-51
2024/04/03 03:13:20;;;;;;;5.67;1.80;;;9.90;99.90;;;;;;5052860;28;20492;-53
2024/04/03 03:15:57;;;;;;;7.63;1.67;;;9.90;99.90;;;;;;5052681;28;20028;-53
2024/04/03 03:18:26;;;;;;;4.90;1.43;;;10.00;99.90;;;;;;5052677;28;20551;-54
2024/04/03 03:20:51;;;;;;;5.80;1.60;;;9.90;99.90;;;;;;5052578;28;20480;-53
2024/04/03 03:23:18;;;;;;;5.43;2.00;;;9.90;99.90;;;;;;5052802;28;20029;-50
2024/04/03 03:25:47;;;;;;;7.03;2.40;;;9.90;99.90;;;;;;5052513;28;20121;-52
2024/04/03 03:28:12;;;;;;;5.65;1.80;;;10.00;99.90;;;;;;5052548;28;20033;-53
2024/04/03 03:30:38;;;;;;;6.83;2.10;;;10.00;99.90;;;;;;5052406;28;20494;-50
2024/04/03 03:33:04;;;;;;;5.87;1.87;;;9.90;99.90;;;;;;5052378;28;20028;-52
2024/04/03 03:35:30;;;;;;;5.63;1.90;;;10.00;99.90;;;;;;5052191;28;20029;-49
2024/04/03 03:37:56;;;;;;;6.27;2.37;;;9.90;99.90;;;;;;5052531;28;20040;-53
2024/04/03 03:40:21;;;;;;;8.77;2.70;;;9.90;99.90;;;;;;5052276;28;20385;-50
2024/04/03 03:42:47;;;;;;;7.10;2.03;;;9.90;99.90;;;;;;5052326;28;20053;-49
2024/04/03 03:45:19;;;;;;;7.90;1.90;;;9.90;99.90;;;;;;5052336;28;20493;-54
2024/04/03 03:47:45;;;;;;;8.50;2.13;;;10.00;99.90;;;;;;5052057;28;20037;-53
2024/04/03 03:52:55;;;;;;;9.20;2.10;;;9.90;99.90;;;;;;5052160;28;20111;-54
2024/04/03 03:55:20;;;;;;;10.27;2.40;;;9.90;99.90;;;;;;5052103;28;20118;-54
2024/04/03 03:57:46;;;;;;;8.77;2.47;;;9.90;99.90;;;;;;5051769;28;20056;-54
2024/04/03 04:00:12;;;;;;;8.47;2.50;;;9.90;99.90;;;;;;5051930;28;20036;-48
2024/04/03 04:02:37;;;;;;;10.53;2.47;;;9.90;99.90;;;;;;5051925;28;20032;-53
2024/04/03 04:05:03;;;;;;;7.37;2.13;;;9.90;99.90;;;;;;5051948;28;20025;-54
2024/04/03 04:07:29;;;;;;;8.03;2.20;;;9.80;99.90;;;;;;5051749;28;20393;-53
2024/04/03 04:09:54;;;;;;;7.43;2.33;;;9.80;99.90;;;;;;5051535;28;20045;-53
2024/04/03 04:12:20;;;;;;;12.47;2.43;;;9.80;99.90;;;;;;5051845;28;20036;-51
2024/04/03 04:14:51;;;;;;;13.37;2.73;;;9.80;99.90;;;;;;5051858;28;20450;-53
2024/04/03 04:17:18;;;;;;;7.40;2.63;;;9.80;99.90;;;;;;5051335;28;20032;-52
2024/04/03 04:19:45;;;;;;;7.17;2.73;;;9.80;99.90;;;;;;5051780;28;20045;-53
2024/04/03 04:22:11;;;;;;;8.10;2.50;;;9.90;99.90;;;;;;5051742;28;20053;-49
2024/04/03 04:24:38;;;;;;;9.50;3.20;;;9.90;99.90;;;;;;5051748;28;20508;-53
2024/04/03 04:27:05;;;;;;;10.47;2.60;;;9.80;99.90;;;;;;5051874;28;20053;-53
2024/04/03 04:29:32;;;;;;;8.17;2.73;;;9.80;99.90;;;;;;5050289;28;20441;-51
2024/04/03 04:32:00;;;;;;;10.93;2.50;;;9.90;99.90;;;;;;5051504;28;20128;-53
2024/04/03 04:34:27;;;;;;;5.75;1.90;;;9.90;99.90;;;;;;5051748;28;20342;-53
2024/04/03 04:36:53;;;;;;;10.03;2.53;;;9.90;99.90;;;;;;5051428;28;20047;-52
2024/04/03 04:39:18;;;;;;;11.57;2.50;;;9.90;99.90;;;;;;5051492;28;20118;-50
2024/04/03 04:41:48;;;;;;;5.80;2.23;;;9.90;99.90;;;;;;5051574;28;20071;-53
2024/04/03 04:44:14;;;;;;;8.13;2.57;;;9.90;99.90;;;;;;5051538;28;20033;-49
2024/04/03 04:46:40;;;;;;;6.53;2.33;;;9.90;99.90;;;;;;5051288;28;20447;-50
2024/04/03 04:49:05;;;;;;;11.50;3.20;;;9.90;99.90;;;;;;5051471;28;20029;-52
2024/04/03 04:51:31;;;;;;;8.43;3.73;;;9.80;99.90;;;;;;5051526;28;20091;-50
2024/04/03 04:53:57;;;;;;;10.50;3.80;;;9.90;99.90;;;;;;5051853;28;20025;-49
2024/04/03 04:56:22;;;;;;;13.87;3.17;;;9.90;99.90;;;;;;5051327;28;20040;-50
2024/04/03 04:58:50;;;;;;;9.33;2.63;;;9.90;99.90;;;;;;5051227;28;20024;-50
2024/04/03 05:01:16;;;;;;;13.07;3.60;;;9.90;99.90;;;;;;5051367;28;20029;-53
2024/04/03 05:03:42;;;;;;;12.10;2.60;;;9.90;99.90;;;;;;5051287;28;20036;-53
2024/04/03 05:06:20;;;;;;;9.63;2.87;;;9.90;99.90;;;;;;5051141;28;20037;-50
2024/04/03 05:08:45;;;;;;;9.63;2.80;;;9.80;99.90;;;;;;5051524;28;20041;-51
2024/04/03 05:11:12;;;;;;;9.47;2.77;;;9.80;99.90;;;;;;5051208;28;20056;-52
2024/04/03 05:13:38;;;;;;;7.77;2.70;;;9.80;99.90;;;;;;5051237;28;20051;-48
2024/04/03 05:16:11;;;;;;;8.53;2.77;;;9.80;99.90;;;;;;5050885;28;20474;-47
2024/04/03 05:18:37;;;;;;;8.87;3.20;;;9.80;99.90;;;;;;5051173;28;20459;-50
2024/04/03 05:21:03;;;;;;;7.87;3.30;;;9.80;99.90;;;;;;5052783;28;20095;-48
2024/04/03 05:23:32;;;;;;;9.17;3.00;;;9.90;99.90;;;;;;5055030;28;20087;-52
2024/04/03 05:25:58;;;;;;;9.00;2.97;;;9.80;99.90;;;;;;5054728;28;20057;-48
2024/04/03 05:28:25;;;;;;;10.37;3.30;;;9.90;99.90;;;;;;5054784;28;20496;-49
2024/04/03 05:30:54;;;;;;;12.53;2.87;;;9.90;99.90;;;;;;5054694;28;20052;-49
2024/04/03 05:33:21;;;;;;;11.80;3.03;;;10.00;99.90;;;;;;5054802;28;20040;-49
2024/04/03 05:35:56;;;;;;;8.93;3.70;;;10.00;99.90;;;;;;5054534;28;20025;-49
2024/04/03 05:38:22;;;;;;;10.13;3.23;;;10.00;99.90;;;;;;5054454;28;20397;-49
2024/04/03 05:40:49;;;;;;;12.83;4.00;;;10.00;99.90;;;;;;5054696;28;20260;-49
2024/04/03 05:43:15;;;;;;;10.57;3.13;;;10.00;99.90;;;;;;5054578;28;20025;-49
2024/04/03 05:45:40;;;;;;;8.77;2.93;;;10.00;99.90;;;;;;5054286;28;20269;-49
2024/04/03 05:48:07;;;;;;;10.23;2.10;;;10.00;99.90;;;;;;5053148;28;20036;-48
2024/04/03 05:50:32;;;;;;;8.07;2.70;;;10.00;99.90;;;;;;5054266;28;20033;-49
2024/04/03 05:52:58;;;;;;;9.23;2.27;;;10.10;99.90;;;;;;5054267;28;20031;-49
2024/04/03 05:55:23;;;;;;;11.60;2.70;;;10.10;99.90;;;;;;5054177;28;20385;-51
2024/04/03 05:57:49;;;;;;;6.10;2.40;;;10.10;99.90;;;;;;5054204;28;20032;-54
2024/04/03 06:00:15;;;;;;;8.50;2.00;;;10.10;99.90;;;;;;5053966;28;20489;-51
2024/04/03 06:02:40;;;;;;;8.47;2.00;;;10.10;99.90;;;;;;5054189;28;20029;-54
2024/04/03 06:05:07;;;;;;;5.03;2.37;;;10.20;99.90;;;;;;5054161;28;20111;-50
2024/04/03 06:07:35;;;;;;;8.90;2.07;;;10.20;99.90;;;;;;5053777;28;20037;-52
2024/04/03 06:10:04;;;;;;;5.35;1.70;;;10.20;99.90;;;;;;5052621;28;20033;-54
2024/04/03 06:12:31;;;;;;;5.78;1.90;;;10.30;99.90;;;;;;5054033;28;20040;-52
2024/04/03 06:14:57;;;;;;;8.80;2.00;;;10.30;99.90;;;;;;5053912;28;20033;-53
2024/04/03 06:17:22;;;;;;;6.03;3.10;;;10.30;99.90;;;;;;5053528;28;20083;-52
2024/04/03 06:19:48;;;;;;;6.77;1.63;;;10.30;99.90;;;;;;5053855;28;20021;-47
2024/04/03 06:22:14;;;;;;;6.93;2.00;;;10.30;99.90;;;;;;5053708;28;20425;-50
2024/04/03 06:24:40;;;;;;;10.90;2.67;;;10.50;99.90;;;;;;5053880;28;20567;-52
2024/04/03 06:27:06;;;;;;;5.97;2.00;;;10.50;99.90;;;;;;5053520;28;20028;-50
2024/04/03 06:29:32;;;;;;;8.90;2.43;;;10.50;99.90;;;;;;5053632;28;20393;-51
2024/04/03 06:31:58;;;;;;;7.67;2.37;;;10.60;99.90;;;;;;5053425;28;20028;-50
2024/04/03 06:34:24;;;;;;;4.73;1.97;;;10.70;99.90;;;;;;5053628;28;20025;-53
2024/04/03 06:36:50;;;;;;;10.30;3.20;;;10.60;99.90;;;;;;5053161;28;20033;-50
2024/04/03 06:39:15;;;;;;;6.70;1.77;;;10.60;99.90;;;;;;5053447;28;20025;-49
2024/04/03 06:41:41;;;;;;;21.50;6.40;;;10.60;99.90;;;;;;5053388;28;20533;-54
2024/04/03 06:44:07;;;;;;;21.87;8.73;;;10.60;99.90;;;;;;5053364;28;20033;-51
2024/04/03 06:46:32;;;;;;;7.03;2.60;;;10.60;99.90;;;;;;5053223;28;20029;-52
2024/04/03 06:48:58;;;;;;;8.50;2.77;;;10.60;99.90;;;;;;5053286;28;20029;-52
2024/04/03 06:51:23;;;;;;;5.03;1.93;;;10.50;99.90;;;;;;5053040;28;20572;-50
2024/04/03 06:53:50;;;;;;;6.43;2.00;;;10.50;99.90;;;;;;5053272;28;20037;-49
2024/04/03 06:56:16;;;;;;;5.67;1.80;;;10.60;99.90;;;;;;5052950;28;20025;-53
2024/04/03 06:58:43;;;;;;;8.13;2.20;;;10.50;99.90;;;;;;5053000;28;20451;-51
2024/04/03 07:01:11;;;;;;;7.40;1.97;;;10.50;99.90;;;;;;5053032;28;20386;-51
2024/04/03 07:03:37;;;;;;;6.00;1.90;;;10.50;99.90;;;;;;5053286;28;20021;-53
2024/04/03 07:06:02;;;;;;;5.67;1.87;;;10.60;99.90;;;;;;5052701;28;20151;-52
2024/04/03 07:08:28;;;;;;;8.10;2.77;;;10.70;99.90;;;;;;5052862;28;20147;-51
2024/04/03 07:10:54;;;;;;;7.10;2.00;;;10.60;99.90;;;;;;5052867;28;20025;-49
2024/04/03 07:13:23;;;;;;;7.77;1.83;;;10.70;99.90;;;;;;5052855;28;20028;-53
2024/04/03 07:15:49;;;;;;;11.35;2.40;;;10.80;99.90;;;;;;5052676;28;20032;-51
2024/04/03 07:18:16;;;;;;;6.97;1.90;;;10.70;99.90;;;;;;5052573;28;20033;-53
2024/04/03 07:20:42;;;;;;;6.93;1.90;;;10.70;99.90;;;;;;5052704;28;20048;-53
2024/04/03 07:23:08;;;;;;;8.03;1.93;;;10.70;99.90;;;;;;5052752;28;20079;-53
2024/04/03 07:25:35;;;;;;;8.23;2.00;;;10.70;99.90;;;;;;5052525;28;20112;-53
2024/04/03 07:28:11;;;;;;;7.03;2.00;;;10.70;99.90;;;;;;5052494;28;20028;-53
2024/04/03 07:30:39;;;;;;;4.83;1.80;;;10.60;99.90;;;;;;5052468;28;20129;-48
2024/04/03 07:33:05;;;;;;;8.77;1.93;;;10.60;99.90;;;;;;5052517;28;20083;-53
2024/04/03 07:35:31;;;;;;;6.63;2.37;;;10.60;99.90;;;;;;5052263;28;20060;-53
2024/04/03 07:37:57;;;;;;;8.83;2.30;;;10.60;99.90;;;;;;5052279;28;20071;-52
2024/04/03 07:40:22;;;;;;;7.57;2.27;;;10.70;99.90;;;;;;5052326;28;20446;-49
2024/04/03 07:42:48;;;;;;;7.23;2.50;;;10.60;99.90;;;;;;5051890;28;20025;-50
2024/04/03 07:45:14;;;;;;;7.77;2.10;;;10.60;99.90;;;;;;5052509;28;20107;-52
2024/04/03 07:47:41;;;;;;;4.90;2.00;;;10.60;99.90;;;;;;5052079;28;20067;-53
2024/04/03 07:50:07;;;;;;;9.23;2.43;;;10.60;99.90;;;;;;5052290;28;20530;-52
2024/04/03 07:52:37;;;;;;;9.43;2.37;;;10.60;99.90;;;;;;5052148;28;20033;-53
2024/04/03 07:55:07;;;;;;;7.63;2.13;;;10.60;99.90;;;;;;5052126;28;20540;-53
2024/04/03 07:57:34;;;;;;;6.90;2.43;;;10.60;99.90;;;;;;5051696;28;20032;-52
2024/04/03 08:00:03;;;;;;;6.83;2.10;;;10.70;99.90;;;;;;5051768;28;20028;-53
2024/04/03 08:02:43;;;;;;;6.70;2.10;;;10.70;99.90;;;;;;5052019;28;20033;-51
2024/04/03 08:05:11;;;;;;;12.13;2.70;;;10.60;99.90;;;;;;5052068;28;20036;-52
2024/04/03 08:07:37;;;;;;;7.20;1.97;;;10.70;99.90;;;;;;5051806;28;20040;-48
2024/04/03 08:10:04;;;;;;;8.47;2.00;;;10.80;99.90;;;;;;5051869;28;20036;-53
2024/04/03 08:12:30;;;;;;;9.17;2.37;;;10.80;99.90;;;;;;5051868;28;20425;-52
2024/04/03 08:14:59;;;;;;;7.77;2.17;;;10.80;99.90;;;;;;5051862;28;20033;-50
2024/04/03 08:17:25;;;;;;;10.32;2.78;;;10.70;99.90;;;;;;5050108;28;20045;-48
2024/04/03 08:19:52;;;;;;;5.33;2.60;;;10.70;99.90;;;;;;5051729;28;20025;-53
2024/04/03 08:22:18;;;;;;;8.90;2.47;;;10.80;99.90;;;;;;5051811;28;20025;-51
2024/04/03 08:24:44;;;;;;;9.07;3.20;;;10.90;99.90;;;;;;5051675;28;20495;-53
2024/04/03 08:27:10;;;;;;;10.50;2.20;;;10.90;99.90;;;;;;5051381;28;20032;-53
2024/04/03 08:29:39;;;;;;;14.70;4.10;;;11.00;99.90;;;;;;5051573;28;20112;-53
2024/04/03 08:32:11;;;;;;;6.90;1.77;;;11.00;99.90;;;;;;5051748;28;20100;-51
2024/04/03 08:34:37;;;;;;;8.33;2.57;;;11.10;99.90;;;;;;5051650;28;20029;-53
2024/04/03 08:37:06;;;;;;;6.87;2.33;;;11.30;99.90;;;;;;5051497;28;20033;-52
2024/04/03 08:39:33;;;;;;;7.37;2.47;;;11.30;99.90;;;;;;5051454;28;20037;-48
2024/04/03 08:42:00;;;;;;;8.47;2.03;;;11.30;99.90;;;;;;5051495;28;20103;-50
2024/04/03 08:44:30;;;;;;;5.50;2.10;;;11.30;99.90;;;;;;5051566;28;20029;-56
2024/04/03 08:46:57;;;;;;;7.00;2.40;;;11.30;99.90;;;;;;5051249;28;20025;-53
2024/04/03 08:49:27;;;;;;;8.40;2.27;;;11.40;99.90;;;;;;5051379;28;20116;-52
2024/04/03 08:52:03;;;;;;;7.23;2.10;;;11.40;99.90;;;;;;5051398;28;20025;-50
2024/04/03 08:54:29;;;;;;;6.67;1.50;;;11.40;99.90;;;;;;5052328;28;20116;-53
2024/04/03 08:56:56;;;;;;;3.83;1.40;;;11.40;99.90;;;;;;5055240;28;20500;-52
2024/04/03 08:59:22;;;;;;;4.90;1.60;;;11.50;99.90;;;;;;5055292;28;20033;-52
2024/04/03 09:01:51;;;;;;;4.77;1.20;;;11.60;99.90;;;;;;5055272;28;20143;-53
2024/04/03 09:04:18;;;;;;;4.80;1.80;;;11.70;99.90;;;;;;5055278;28;20041;-50
2024/04/03 09:06:45;;;;;;;4.67;1.67;;;11.80;99.90;;;;;;5055071;28;20025;-48
2024/04/03 09:09:22;;;;;;;8.50;2.10;;;11.80;99.90;;;;;;5055142;28;20064;-53
2024/04/03 09:11:50;;;;;;;5.73;1.70;;;11.90;99.90;;;;;;5055042;28;20043;-51
2024/04/03 09:14:23;;;;;;;6.93;1.67;;;11.90;99.90;;;;;;5053897;28;20029;-54
2024/04/03 09:16:49;;;;;;;7.18;1.67;;;11.90;99.90;;;;;;5054828;28;20474;-52
2024/04/03 09:19:15;;;;;;;7.37;1.70;;;11.90;99.90;;;;;;5053675;28;20054;-52
2024/04/03 09:21:41;;;;;;;4.37;1.63;;;11.90;99.90;;;;;;5053612;28;20493;-51
2024/04/03 09:24:08;;;;;;;7.23;1.80;;;11.80;99.90;;;;;;5054923;28;20029;-49
2024/04/03 09:26:34;;;;;;;7.90;1.90;;;11.70;99.90;;;;;;5054644;28;20044;-54
2024/04/03 09:29:03;;;;;;;6.10;1.87;;;11.70;99.90;;;;;;5054855;28;20067;-54
2024/04/03 09:31:30;;;;;;;5.47;2.67;;;11.70;99.90;;;;;;5053435;28;20122;-51
2024/04/03 09:33:56;;;;;;;6.93;1.50;;;11.70;99.90;;;;;;5054800;28;20063;-51
2024/04/03 09:36:22;;;;;;;6.07;1.83;;;11.70;99.90;;;;;;5054591;28;20540;-53
2024/04/03 09:38:49;;;;;;;4.07;1.40;;;11.80;99.90;;;;;;5054644;28;20032;-54
2024/04/03 09:41:15;;;;;;;4.97;1.87;;;11.80;99.90;;;;;;5054534;28;20083;-54
2024/04/03 09:43:45;;;;;;;5.23;1.50;;;12.00;99.90;;;;;;5054577;28;20478;-54
2024/04/03 09:46:14;;;;;;;4.80;1.55;;;12.00;99.90;;;;;;5054348;28;20036;-53
2024/04/03 09:48:41;;;;;;;7.10;1.77;;;12.10;99.90;;;;;;5054444;28;20040;-54
2024/04/03 09:51:09;;;;;;;6.13;1.45;;;12.20;99.90;;;;;;5054551;28;20029;-52
2024/04/03 09:53:36;;;;;;;3.70;1.50;;;12.10;99.90;;;;;;5054401;28;20446;-49
2024/04/03 09:56:02;;;;;;;6.93;1.40;;;12.10;99.90;;;;;;5054087;28;20124;-53
2024/04/03 09:58:34;;;;;;;8.30;1.67;;;11.90;99.90;;;;;;5053041;28;20033;-51
2024/04/03 10:01:02;;;;;;;7.20;1.70;;;11.90;99.90;;;;;;5054093;28;20060;-53
2024/04/03 10:03:32;;;;;;;5.17;1.40;;;11.90;99.90;;;;;;5054048;28;20025;-54
2024/04/03 10:06:03;;;;;;;5.13;1.30;;;11.90;99.90;;;;;;5053377;28;20025;-53
2024/04/03 10:08:41;;;;;;;3.75;1.23;;;11.90;99.90;;;;;;5054098;28;20025;-53
2024/04/03 10:11:09;;;;;;;4.78;1.58;;;11.80;99.90;;;;;;5052810;28;20037;-54
2024/04/03 10:13:38;;;;;;;4.75;1.48;;;11.90;99.90;;;;;;5054047;28;20029;-53
2024/04/03 10:16:09;;;;;;;;;;;12.00;99.90;;;;;;5054381;28;20067;-49
2024/04/03 10:18:36;;;;;;;5.07;1.52;;;12.00;99.90;;;;;;5052713;28;19917;-54
2024/04/03 10:21:03;;;;;;;5.20;1.55;;;12.10;99.90;;;;;;5053872;28;20119;-53
2024/04/03 10:23:28;;;;;;;3.60;1.08;;;12.20;99.90;;;;;;5053856;28;20068;-53
2024/04/03 10:25:56;;;;;;;6.38;1.63;;;12.20;99.90;;;;;;5052197;28;20033;-53
2024/04/03 10:28:21;;;;;;;6.47;1.40;;;12.20;99.90;;;;;;5053862;28;20086;-52
2024/04/03 10:30:56;;;;;;;3.83;1.73;;;12.20;99.90;;;;;;5053983;28;20108;-51
2024/04/03 10:33:22;;;;;;;2.85;1.50;;;12.30;99.90;;;;;;5053737;28;20041;-49
2024/04/03 10:35:48;;;;;;;6.70;1.30;;;12.30;99.90;;;;;;5053680;28;20386;-52
2024/04/03 10:38:14;;;;;;;4.32;1.40;;;12.30;99.90;;;;;;5053717;28;20040;-53
2024/04/03 10:40:40;;;;;;;3.97;1.20;;;12.30;99.90;;;;;;5053370;28;20033;-53
2024/04/03 10:43:06;;;;;;;4.65;1.80;;;12.30;99.90;;;;;;5053531;28;20494;-50
2024/04/03 10:45:31;;;;;;;3.78;1.08;;;12.40;99.90;;;;;;5053238;28;20033;-52
2024/04/03 10:47:57;;;;;;;2.83;0.93;;;12.50;99.90;;;;;;5053230;28;20087;-50
2024/04/03 10:50:24;;;;;;;3.90;1.10;;;12.60;99.90;;;;;;5053201;28;20090;-52
2024/04/03 10:52:51;;;;;;;2.95;0.80;;;12.60;99.90;;;;;;5053785;28;20067;-53
2024/04/03 10:55:20;;;;;;;6.15;1.20;;;12.60;99.90;;;;;;5053260;28;20033;-50
2024/04/03 10:57:47;;;;;;;;;;;12.60;99.90;;;;;;5053539;28;20029;-50
2024/04/03 11:00:13;;;;;;;;;;;12.50;99.90;;;;;;5053604;28;19916;-53
2024/04/03 11:02:44;;;;;;;;;;;12.50;99.90;;;;;;5053900;28;19963;-52
2024/04/03 11:05:11;;;;;;;;;;;12.50;99.90;;;;;;5053630;28;19909;-53
2024/04/03 11:07:36;;;;;;;;;;;12.50;99.90;;;;;;5053283;28;19993;-53
2024/04/03 11:10:05;;;;;;;;;;;12.60;99.90;;;;;;5053415;28;20011;-50
2024/04/03 11:12:31;;;;;;;;;;;12.70;99.90;;;;;;5052150;28;19935;-53
2024/04/03 11:14:56;;;;;;;;;;;12.80;99.90;;;;;;5053515;28;19909;-53
2024/04/03 11:17:22;;;;;;;;;;;12.90;99.90;;;;;;5052758;28;19923;-53
2024/04/03 11:19:48;;;;;;;;;;;13.00;99.90;;;;;;5051447;28;19909;-51
2024/04/03 11:22:13;;;;;;;;;;;13.00;99.90;;;;;;5053233;28;19915;-51
2024/04/03 11:24:39;;;;;;;;;;;13.10;99.90;;;;;;5053299;28;19916;-53
2024/04/03 11:27:06;;;;;;;;;;;13.30;99.90;;;;;;5053005;28;19915;-53
2024/04/03 11:29:32;;;;;;;;;;;13.50;99.90;;;;;;5053093;28;19919;-48
2024/04/03 11:31:58;;;;;;;;;;;13.50;99.90;;;;;;5052977;28;19908;-50
2024/04/03 11:34:27;;;;;;;;;;;13.60;99.90;;;;;;5053360;28;20250;-49
2024/04/03 11:36:53;;;;;;;;;;;13.60;99.90;;;;;;5052662;28;19916;-48
2024/04/03 11:39:19;;;;;;;;;;;13.60;99.90;;;;;;5052794;28;19917;-49
2024/04/03 11:41:45;;;;;;;;;;;13.50;99.90;;;;;;5052973;28;20377;-48
2024/04/03 11:44:11;;;;;;;;;;;13.50;99.90;;;;;;5052819;28;20376;-48
2024/04/03 11:46:37;;;;;;;;;;;13.50;99.90;;;;;;5052599;28;20228;-48
2024/04/03 11:49:04;;;;;;;;;;;13.40;99.90;;;;;;5052831;28;20357;-48
2024/04/03 11:51:30;;;;;;;;;;;13.40;99.90;;;;;;5052627;28;19912;-49
2024/04/03 11:53:55;;;;;;;;;;;13.20;99.90;;;;;;5052665;28;19909;-50
2024/04/03 11:56:25;;;;;;;;;;;13.20;99.90;;;;;;5051388;28;19919;-47
2024/04/03 11:58:50;;;;;;;;;;;13.20;99.90;;;;;;5052634;28;20315;-49
2024/04/03 12:01:17;;;;;;;;;;;13.20;99.90;;;;;;5053252;28;19916;-51
2024/04/03 12:03:42;;;;;;;;;;;13.20;99.90;;;;;;5052921;28;19999;-51
2024/04/03 12:06:09;;;;;;;;;;;13.20;99.90;;;;;;5052663;28;20369;-48
2024/04/03 12:08:35;;;;;;;;;;;13.10;99.90;;;;;;5052841;28;19912;-51
2024/04/03 12:11:01;;;;;;;;;;;13.00;99.90;;;;;;5049028;28;19931;-52
2024/04/03 12:13:27;;;;;;;;;;;13.00;99.90;;;;;;5051151;28;19908;-51
2024/04/03 12:15:52;;;;;;;;;;;12.90;99.90;;;;;;5052053;28;20423;-53
2024/04/03 12:18:25;;;;;;;;;;;12.70;99.90;;;;;;5051644;28;19916;-53
2024/04/03 12:20:53;;;;;;;;;;;12.50;99.90;;;;;;5052029;28;19915;-50
2024/04/03 12:23:18;;;;;;;;;;;12.50;99.90;;;;;;5052214;28;19909;-53
2024/04/03 12:25:44;;;;;;;;;;;12.50;99.90;;;;;;5051972;28;20295;-51
2024/04/03 12:28:10;;;;;;;;;;;12.50;99.90;;;;;;5052031;28;19923;-51
2024/04/03 12:30:36;;;;;;;;;;;12.50;99.90;;;;;;5051170;28;20441;-51
2024/04/03 12:33:02;;;;;;;;;;;12.60;99.90;;;;;;5051474;28;19913;-52
2024/04/03 12:35:31;;;;;;;;;;;12.50;99.90;;;;;;5051805;28;19955;-48
2024/04/03 12:37:57;;;;;;;;;;;12.50;99.90;;;;;;5052110;28;19912;-49
2024/04/03 12:40:23;;;;;;;;;;;12.50;99.90;;;;;;5049657;28;20304;-49
2024/04/03 12:42:48;;;;;;;;;;;12.30;99.90;;;;;;5032351;28;19909;-50
2024/04/03 12:45:14;;;;;;;;;;;12.20;99.90;;;;;;5032512;28;20317;-52
2024/04/03 12:47:40;;;;;;;;;;;12.00;99.90;;;;;;5032063;28;19958;-52
2024/04/03 12:50:06;;;;;;;;;;;11.90;99.90;;;;;;5032162;28;20016;-49
2024/04/03 12:52:33;;;;;;;;;;;11.80;99.90;;;;;;5032184;28;19920;-48
2024/04/03 12:54:58;;;;;;;;;;;11.80;99.90;;;;;;5032024;28;19913;-53
2024/04/03 12:57:24;;;;;;;;;;;11.80;99.90;;;;;;5031891;28;20384;-53
2024/04/03 12:59:49;;;;;;;;;;;11.90;99.90;;;;;;5031988;28;19955;-51